sensor_id;sensor_type;location;lat;lon;timestamp;temperature;humidity
15815;DHT22;8008;50.024;8.172;2024-02-28T04:02:11;4.60;99.90
15815;DHT22;8008;50.024;8.172;2024-02-28T04:04:39;4.60;99.90
15815;DHT22;8008;50.024;8.172;2024-02-28T04:07:07;4.60;99.90
15815;DHT22;8008;50.024;8.172;2024-02-28T04:09:35;4.70;99.90
15815;DHT22;8008;50.024;8.172;2024-02-28T04:12:03;4.70;99.90
15815;DHT22;8008;50.024;8.172;2024-02-28T04:14:31;4.70;99.90
15815;DHT22;8008;50.024;8.172;2024-02-28T04:16:59;4.60;99.90
15815;DHT22;8008;50.024;8.172;2024-02-28T04:19:28;4.60;99.90
15815;DHT22;8008;50.024;8.172;2024-02-28T04:21:56;4.50;99.90
15815;DHT22;8008;50.024;8.172;2024-02-28T04:24:24;4.50;99.90
15815;DHT22;8008;50.024;8.172;2024-02-28T04:26:52;4.50;99.90
15815;DHT22;8008;50.024;8.172;2024-02-28T04:29:20;4.50;99.90
15815;DHT22;8008;50.024;8.172;2024-02-28T04:31:48;4.40;99.90
15815;DHT22;8008;50.024;8.172;2024-02-28T04:34:16;4.50;99.90
15815;DHT22;8008;50.024;8.172;2024-02-28T04:36:45;4.50;99.90
15815;DHT22;8008;50.024;8.172;2024-02-28T04:39:13;4.50;99.90
15815;DHT22;8008;50.024;8.172;2024-02-28T04:41:41;4.40;99.90
15815;DHT22;8008;50.024;8.172;2024-02-28T04:44:09;4.40;99.90
15815;DHT22;8008;50.024;8.172;2024-02-28T04:46:37;4.40;99.90
15815;DHT22;8008;50.024;8.172;2024-02-28T04:49:05;4.40;99.90
15815;DHT22;8008;50.024;8.172;2024-02-28T04:51:33;4.40;99.90
15815;DHT22;8008;50.024;8.172;2024-02-28T04:54:02;4.30;99.90
15815;DHT22;8008;50.024;8.172;2024-02-28T04:56:30;4.30;99.90
15815;DHT22;8008;50.024;8.172;2024-02-28T04:58:58;4.20;99.90
15815;DHT22;8008;50.024;8.172;2024-02-28T05:01:26;4.20;99.90
15815;DHT22;8008;50.024;8.172;2024-02-28T05:03:55;4.20;99.90
15815;DHT22;8008;50.024;8.172;2024-02-28T05:06:23;4.20;99.90
15815;DHT22;8008;50.024;8.172;2024-02-28T05:08:51;4.30;99.90
15815;DHT22;8008;50.024;8.172;2024-02-28T05:11:21;4.30;99.90
15815;DHT22;8008;50.024;8.172;2024-02-28T05:13:49;4.40;99.90
15815;DHT22;8008;50.024;8.172;2024-02-28T05:16:17;4.20;99.90
15815;DHT22;8008;50.024;8.172;2024-02-28T05:18:45;4.20;99.90
15815;DHT22;8008;50.024;8.172;2024-02-28T05:21:13;4.20;99.90
15815;DHT22;8008;50.024;8.172;2024-02-28T05:23:41;4.20;99.90
15815;DHT22;8008;50.024;8.172;2024-02-28T05:26:09;4.30;99.90
15815;DHT22;8008;50.024;8.172;2024-02-28T05:28:38;4.20;99.90
15815;DHT22;8008;50.024;8.172;2024-02-28T05:31:20;4.30;99.90
15815;DHT22;8008;50.024;8.172;2024-02-28T05:33:49;4.10;99.90
15815;DHT22;8008;50.024;8.172;2024-02-28T05:36:17;4.00;99.90
15815;DHT22;8008;50.024;8.172;2024-02-28T05:38:46;4.00;99.90
15815;DHT22;8008;50.024;8.172;2024-02-28T05:41:16;4.00;99.90
15815;DHT22;8008;50.024;8.172;2024-02-28T05:43:46;4.10;99.90
15815;DHT22;8008;50.024;8.172;2024-02-28T05:46:14;4.10;99.90
15815;DHT22;8008;50.024;8.172;2024-02-28T05:48:43;4.10;99.90
15815;DHT22;8008;50.024;8.172;2024-02-28T05:51:12;4.10;99.90
15815;DHT22;8008;50.024;8.172;2024-02-28T05:53:40;4.20;99.90
15815;DHT22;8008;50.024;8.172;2024-02-28T05:56:10;4.20;99.90
15815;DHT22;8008;50.024;8.172;2024-02-28T05:58:41;4.20;99.90
15815;DHT22;8008;50.024;8.172;2024-02-28T06:01:10;4.20;99.90
15815;DHT22;8008;50.024;8.172;2024-02-28T06:03:39;4.20;99.90
15815;DHT22;8008;50.024;8.172;2024-02-28T06:06:07;4.20;99.90
15815;DHT22;8008;50.024;8.172;2024-02-28T06:08:38;4.20;99.90
15815;DHT22;8008;50.024;8.172;2024-02-28T06:11:06;4.30;99.90
15815;DHT22;8008;50.024;8.172;2024-02-28T06:13:34;4.40;99.90
15815;DHT22;8008;50.024;8.172;2024-02-28T06:16:02;4.30;99.90
15815;DHT22;8008;50.024;8.172;2024-02-28T06:18:32;4.20;99.90
15815;DHT22;8008;50.024;8.172;2024-02-28T06:21:01;4.20;99.90
15815;DHT22;8008;50.024;8.172;2024-02-28T06:23:29;4.10;99.90
15815;DHT22;8008;50.024;8.172;2024-02-28T06:25:57;4.10;99.90
15815;DHT22;8008;50.024;8.172;2024-02-28T06:28:25;4.20;99.90
15815;DHT22;8008;50.024;8.172;2024-02-28T06:30:53;4.20;99.90
15815;DHT22;8008;50.024;8.172;2024-02-28T06:33:21;4.30;99.90
15815;DHT22;8008;50.024;8.172;2024-02-28T06:35:50;4.30;99.90
15815;DHT22;8008;50.024;8.172;2024-02-28T06:38:18;4.30;99.90
15815;DHT22;8008;50.024;8.172;2024-02-28T06:40:46;4.40;99.90
15815;DHT22;8008;50.024;8.172;2024-02-28T06:43:14;4.40;99.90
15815;DHT22;8008;50.024;8.172;2024-02-28T06:45:42;4.30;99.90
15815;DHT22;8008;50.024;8.172;2024-02-28T06:48:10;4.40;99.90
15815;DHT22;8008;50.024;8.172;2024-02-28T06:50:38;4.30;99.90
15815;DHT22;8008;50.024;8.172;2024-02-28T06:53:08;4.20;99.90
15815;DHT22;8008;50.024;8.172;2024-02-28T06:55:36;4.10;99.90
15815;DHT22;8008;50.024;8.172;2024-02-28T06:58:04;4.00;99.90
15815;DHT22;8008;50.024;8.172;2024-02-28T07:00:32;4.00;99.90
15815;DHT22;8008;50.024;8.172;2024-02-28T07:03:00;4.10;99.90
15815;DHT22;8008;50.024;8.172;2024-02-28T07:05:28;4.20;99.90
15815;DHT22;8008;50.024;8.172;2024-02-28T07:07:56;4.20;99.90
15815;DHT22;8008;50.024;8.172;2024-02-28T07:10:25;4.30;99.90
15815;DHT22;8008;50.024;8.172;2024-02-28T07:12:53;4.30;99.90
15815;DHT22;8008;50.024;8.172;2024-02-28T07:15:21;4.30;99.90
15815;DHT22;8008;50.024;8.172;2024-02-28T07:17:49;4.40;99.90
15815;DHT22;8008;50.024;8.172;2024-02-28T07:20:17;4.40;99.90
15815;DHT22;8008;50.024;8.172;2024-02-28T07:22:46;4.50;99.90
15815;DHT22;8008;50.024;8.172;2024-02-28T07:25:14;4.50;99.90
15815;DHT22;8008;50.024;8.172;2024-02-28T07:27:43;4.50;99.90
15815;DHT22;8008;50.024;8.172;2024-02-28T07:30:12;4.60;99.90
15815;DHT22;8008;50.024;8.172;2024-02-28T07:32:40;4.50;99.90
15815;DHT22;8008;50.024;8.172;2024-02-28T07:35:08;4.60;99.90
15815;DHT22;8008;50.024;8.172;2024-02-28T07:37:36;4.60;99.90
15815;DHT22;8008;50.024;8.172;2024-02-28T07:40:05;4.60;99.90
15815;DHT22;8008;50.024;8.172;2024-02-28T07:42:35;4.70;99.90
15815;DHT22;8008;50.024;8.172;2024-02-28T07:45:05;4.70;99.90
15815;DHT22;8008;50.024;8.172;2024-02-28T07:47:35;4.80;99.90
15815;DHT22;8008;50.024;8.172;2024-02-28T07:50:03;4.90;99.90
15815;DHT22;8008;50.024;8.172;2024-02-28T07:52:32;5.00;99.90
15815;DHT22;8008;50.024;8.172;2024-02-28T07:55:02;5.00;99.90
15815;DHT22;8008;50.024;8.172;2024-02-28T07:57:31;4.90;99.90
15815;DHT22;8008;50.024;8.172;2024-02-28T08:00:00;5.00;99.90
15815;DHT22;8008;50.024;8.172;2024-02-28T08:02:39;5.10;99.90
15815;DHT22;8008;50.024;8.172;2024-02-28T08:05:07;5.20;99.90
15815;DHT22;8008;50.024;8.172;2024-02-28T08:07:35;5.20;99.90
15815;DHT22;8008;50.024;8.172;2024-02-28T08:10:04;5.20;99.90
15815;DHT22;8008;50.024;8.172;2024-02-28T08:12:32;5.30;99.90
15815;DHT22;8008;50.024;8.172;2024-02-28T08:15:00;5.30;99.90
15815;DHT22;8008;50.024;8.172;2024-02-28T08:17:28;5.40;99.90
15815;DHT22;8008;50.024;8.172;2024-02-28T08:19:58;5.40;99.90
15815;DHT22;8008;50.024;8.172;2024-02-28T08:22:26;5.50;99.90
15815;DHT22;8008;50.024;8.172;2024-02-28T08:24:54;5.60;99.90
15815;DHT22;8008;50.024;8.172;2024-02-28T08:27:21;5.60;99.90
15815;DHT22;8008;50.024;8.172;2024-02-28T08:29:50;5.70;99.90
15815;DHT22;8008;50.024;8.172;2024-02-28T08:32:18;5.70;99.90
15815;DHT22;8008;50.024;8.172;2024-02-28T08:34:46;5.70;99.90
15815;DHT22;8008;50.024;8.172;2024-02-28T08:37:15;5.60;99.90
15815;DHT22;8008;50.024;8.172;2024-02-28T08:39:43;5.60;99.90
15815;DHT22;8008;50.024;8.172;2024-02-28T08:42:11;5.50;99.90
15815;DHT22;8008;50.024;8.172;2024-02-28T08:44:39;5.60;99.90
15815;DHT22;8008;50.024;8.172;2024-02-28T08:47:07;5.80;99.90
15815;DHT22;8008;50.024;8.172;2024-02-28T08:49:36;5.90;99.90
15815;DHT22;8008;50.024;8.172;2024-02-28T08:52:04;5.90;99.90
15815;DHT22;8008;50.024;8.172;2024-02-28T08:54:33;6.00;99.90
15815;DHT22;8008;50.024;8.172;2024-02-28T08:57:02;6.10;99.90
15815;DHT22;8008;50.024;8.172;2024-02-28T08:59:30;6.30;99.90
15815;DHT22;8008;50.024;8.172;2024-02-28T09:01:58;6.30;99.90
15815;DHT22;8008;50.024;8.172;2024-02-28T09:04:26;6.30;99.90
15815;DHT22;8008;50.024;8.172;2024-02-28T09:06:55;6.30;99.90
15815;DHT22;8008;50.024;8.172;2024-02-28T09:09:23;6.40;99.90
15815;DHT22;8008;50.024;8.172;2024-02-28T09:11:52;6.40;99.90
15815;DHT22;8008;50.024;8.172;2024-02-28T09:14:20;6.50;99.90
15815;DHT22;8008;50.024;8.172;2024-02-28T09:16:48;6.60;99.90
15815;DHT22;8008;50.024;8.172;2024-02-28T09:19:16;6.60;99.90
15815;DHT22;8008;50.024;8.172;2024-02-28T09:21:44;6.70;99.90
15815;DHT22;8008;50.024;8.172;2024-02-28T09:24:15;6.70;99.90
15815;DHT22;8008;50.024;8.172;2024-02-28T09:26:42;6.60;99.90
15815;DHT22;8008;50.024;8.172;2024-02-28T09:29:12;6.70;99.90
15815;DHT22;8008;50.024;8.172;2024-02-28T09:31:40;6.80;99.90
15815;DHT22;8008;50.024;8.172;2024-02-28T09:34:08;6.80;99.90
15815;DHT22;8008;50.024;8.172;2024-02-28T09:36:40;6.80;99.90
15815;DHT22;8008;50.024;8.172;2024-02-28T09:39:09;6.90;99.90
15815;DHT22;8008;50.024;8.172;2024-02-28T09:41:37;7.10;99.90
15815;DHT22;8008;50.024;8.172;2024-02-28T09:44:06;7.20;99.90
15815;DHT22;8008;50.024;8.172;2024-02-28T09:46:36;7.30;99.90
15815;DHT22;8008;50.024;8.172;2024-02-28T09:49:05;7.30;99.90
15815;DHT22;8008;50.024;8.172;2024-02-28T09:51:34;7.30;99.90
15815;DHT22;8008;50.024;8.172;2024-02-28T09:54:02;7.50;99.90
15815;DHT22;8008;50.024;8.172;2024-02-28T09:56:31;7.60;99.90
15815;DHT22;8008;50.024;8.172;2024-02-28T09:58:59;7.80;99.90
15815;DHT22;8008;50.024;8.172;2024-02-28T10:01:29;8.00;99.90
15815;DHT22;8008;50.024;8.172;2024-02-28T10:04:00;8.20;99.90
15815;DHT22;8008;50.024;8.172;2024-02-28T10:06:29;8.30;99.90
15815;DHT22;8008;50.024;8.172;2024-02-28T10:08:57;8.40;99.90
15815;DHT22;8008;50.024;8.172;2024-02-28T10:11:25;8.40;99.90
15815;DHT22;8008;50.024;8.172;2024-02-28T10:13:54;8.60;99.90
15815;DHT22;8008;50.024;8.172;2024-02-28T10:16:22;8.70;99.90
15815;DHT22;8008;50.024;8.172;2024-02-28T10:18:51;8.80;99.90
15815;DHT22;8008;50.024;8.172;2024-02-28T10:21:20;8.90;99.90
15815;DHT22;8008;50.024;8.172;2024-02-28T10:23:50;9.00;99.90
15815;DHT22;8008;50.024;8.172;2024-02-28T10:26:18;9.00;99.90
15815;DHT22;8008;50.024;8.172;2024-02-28T10:28:46;9.10;99.90
15815;DHT22;8008;50.024;8.172;2024-02-28T10:31:14;9.10;99.90
15815;DHT22;8008;50.024;8.172;2024-02-28T10:33:42;9.10;99.90
15815;DHT22;8008;50.024;8.172;2024-02-28T10:36:11;9.20;99.90
15815;DHT22;8008;50.024;8.172;2024-02-28T10:38:40;9.30;99.90
15815;DHT22;8008;50.024;8.172;2024-02-28T10:41:09;9.30;99.90
15815;DHT22;8008;50.024;8.172;2024-02-28T10:43:41;9.30;99.90
15815;DHT22;8008;50.024;8.172;2024-02-28T10:46:09;9.30;99.90
15815;DHT22;8008;50.024;8.172;2024-02-28T10:48:57;9.40;99.90
15815;DHT22;8008;50.024;8.172;2024-02-28T10:51:26;9.60;99.90
15815;DHT22;8008;50.024;8.172;2024-02-28T10:54:02;9.60;99.90
15815;DHT22;8008;50.024;8.172;2024-02-28T10:56:34;9.40;99.90
15815;DHT22;8008;50.024;8.172;2024-02-28T10:59:06;9.10;99.90
15815;DHT22;8008;50.024;8.172;2024-02-28T11:01:39;9.20;99.90
15815;DHT22;8008;50.024;8.172;2024-02-28T11:04:08;9.40;99.90
15815;DHT22;8008;50.024;8.172;2024-02-28T11:06:47;9.80;99.90
15815;DHT22;8008;50.024;8.172;2024-02-28T11:09:20;10.10;99.90
15815;DHT22;8008;50.024;8.172;2024-02-28T11:11:50;10.40;99.90
15815;DHT22;8008;50.024;8.172;2024-02-28T11:14:19;10.50;99.90
15815;DHT22;8008;50.024;8.172;2024-02-28T11:17:15;10.40;99.90
15815;DHT22;8008;50.024;8.172;2024-02-28T11:19:53;10.30;99.90
15815;DHT22;8008;50.024;8.172;2024-02-28T11:22:22;10.20;99.90
15815;DHT22;8008;50.024;8.172;2024-02-28T11:24:54;10.10;99.90
15815;DHT22;8008;50.024;8.172;2024-02-28T11:27:22;10.10;99.90
15815;DHT22;8008;50.024;8.172;2024-02-28T11:29:50;10.00;99.90
15815;DHT22;8008;50.024;8.172;2024-02-28T11:32:18;10.00;99.90
15815;DHT22;8008;50.024;8.172;2024-02-28T11:34:47;10.00;99.90
15815;DHT22;8008;50.024;8.172;2024-02-28T11:37:18;10.00;99.90
15815;DHT22;8008;50.024;8.172;2024-02-28T11:39:46;10.00;99.90
15815;DHT22;8008;50.024;8.172;2024-02-28T11:42:16;10.00;99.90
15815;DHT22;8008;50.024;8.172;2024-02-28T11:44:53;10.10;99.90
15815;DHT22;8008;50.024;8.172;2024-02-28T11:47:28;10.10;99.90
15815;DHT22;8008;50.024;8.172;2024-02-28T11:49:58;10.00;99.90
15815;DHT22;8008;50.024;8.172;2024-02-28T11:52:26;10.00;99.90
15815;DHT22;8008;50.024;8.172;2024-02-28T11:54:54;10.00;99.90
15815;DHT22;8008;50.024;8.172;2024-02-28T11:57:23;9.90;99.90
15815;DHT22;8008;50.024;8.172;2024-02-28T11:59:52;10.00;99.90
15815;DHT22;8008;50.024;8.172;2024-02-28T12:02:22;10.10;99.90
15815;DHT22;8008;50.024;8.172;2024-02-28T12:04:52;10.20;99.90
15815;DHT22;8008;50.024;8.172;2024-02-28T12:07:22;10.30;99.20
15815;DHT22;8008;50.024;8.172;2024-02-28T12:09:50;10.20;99.20
15815;DHT22;8008;50.024;8.172;2024-02-28T12:12:18;10.10;99.80
15815;DHT22;8008;50.024;8.172;2024-02-28T12:14:47;10.20;99.90
15815;DHT22;8008;50.024;8.172;2024-02-28T12:17:15;10.30;99.70
15815;DHT22;8008;50.024;8.172;2024-02-28T12:19:43;10.40;99.60
15815;DHT22;8008;50.024;8.172;2024-02-28T12:22:11;10.50;99.60
15815;DHT22;8008;50.024;8.172;2024-02-28T12:24:39;10.50;99.20
15815;DHT22;8008;50.024;8.172;2024-02-28T12:27:07;10.50;99.50
15815;DHT22;8008;50.024;8.172;2024-02-28T12:29:35;10.40;99.40
15815;DHT22;8008;50.024;8.172;2024-02-28T12:32:05;10.50;99.90
15815;DHT22;8008;50.024;8.172;2024-02-28T12:34:34;10.60;99.90
15815;DHT22;8008;50.024;8.172;2024-02-28T12:37:03;10.70;99.90
15815;DHT22;8008;50.024;8.172;2024-02-28T12:39:32;10.80;99.90
15815;DHT22;8008;50.024;8.172;2024-02-28T12:42:01;10.90;99.90
15815;DHT22;8008;50.024;8.172;2024-02-28T12:44:29;11.00;99.90
15815;DHT22;8008;50.024;8.172;2024-02-28T12:46:57;11.10;99.90
15815;DHT22;8008;50.024;8.172;2024-02-28T12:49:27;11.20;99.90
15815;DHT22;8008;50.024;8.172;2024-02-28T12:51:59;11.20;99.90
15815;DHT22;8008;50.024;8.172;2024-02-28T12:54:27;11.20;99.90
15815;DHT22;8008;50.024;8.172;2024-02-28T12:56:55;11.20;99.90
15815;DHT22;8008;50.024;8.172;2024-02-28T12:59:23;11.20;99.90
15815;DHT22;8008;50.024;8.172;2024-02-28T13:01:52;11.40;99.90
15815;DHT22;8008;50.024;8.172;2024-02-28T13:04:20;11.60;99.90
15815;DHT22;8008;50.024;8.172;2024-02-28T13:06:49;11.60;99.90
15815;DHT22;8008;50.024;8.172;2024-02-28T13:09:19;11.70;99.90
15815;DHT22;8008;50.024;8.172;2024-02-28T13:11:49;11.70;99.90
15815;DHT22;8008;50.024;8.172;2024-02-28T13:14:17;11.70;99.30
15815;DHT22;8008;50.024;8.172;2024-02-28T13:16:46;11.60;99.20
15815;DHT22;8008;50.024;8.172;2024-02-28T13:19:15;11.40;98.60
15815;DHT22;8008;50.024;8.172;2024-02-28T13:21:43;11.10;98.80
15815;DHT22;8008;50.024;8.172;2024-02-28T13:24:13;11.20;99.50
15815;DHT22;8008;50.024;8.172;2024-02-28T13:26:41;11.30;99.40
15815;DHT22;8008;50.024;8.172;2024-02-28T13:29:09;11.40;99.90
15815;DHT22;8008;50.024;8.172;2024-02-28T13:31:37;11.50;99.30
15815;DHT22;8008;50.024;8.172;2024-02-28T13:34:05;11.50;99.10
15815;DHT22;8008;50.024;8.172;2024-02-28T13:36:33;11.50;97.90
15815;DHT22;8008;50.024;8.172;2024-02-28T13:39:03;11.60;97.30
15815;DHT22;8008;50.024;8.172;2024-02-28T13:41:33;11.60;96.80
15815;DHT22;8008;50.024;8.172;2024-02-28T13:44:01;11.60;96.20
15815;DHT22;8008;50.024;8.172;2024-02-28T13:46:28;11.70;95.60
15815;DHT22;8008;50.024;8.172;2024-02-28T13:48:57;11.70;96.20
15815;DHT22;8008;50.024;8.172;2024-02-28T13:51:25;11.80;95.00
15815;DHT22;8008;50.024;8.172;2024-02-28T13:54:02;11.80;95.40
15815;DHT22;8008;50.024;8.172;2024-02-28T13:56:30;11.90;94.70
15815;DHT22;8008;50.024;8.172;2024-02-28T13:58:59;11.90;94.30
15815;DHT22;8008;50.024;8.172;2024-02-28T14:01:27;11.90;93.40
15815;DHT22;8008;50.024;8.172;2024-02-28T14:03:56;11.90;93.10
15815;DHT22;8008;50.024;8.172;2024-02-28T14:06:24;11.90;93.00
15815;DHT22;8008;50.024;8.172;2024-02-28T14:08:52;12.00;92.80
15815;DHT22;8008;50.024;8.172;2024-02-28T14:11:20;12.10;92.30
15815;DHT22;8008;50.024;8.172;2024-02-28T14:13:48;12.10;92.30
15815;DHT22;8008;50.024;8.172;2024-02-28T14:16:17;12.20;92.30
15815;DHT22;8008;50.024;8.172;2024-02-28T14:18:47;12.40;92.60
15815;DHT22;8008;50.024;8.172;2024-02-28T14:21:15;12.50;92.10
15815;DHT22;8008;50.024;8.172;2024-02-28T14:23:42;12.50;91.70
15815;DHT22;8008;50.024;8.172;2024-02-28T14:26:12;12.60;91.60
15815;DHT22;8008;50.024;8.172;2024-02-28T14:28:39;12.50;89.00
15815;DHT22;8008;50.024;8.172;2024-02-28T14:31:08;12.40;86.90
15815;DHT22;8008;50.024;8.172;2024-02-28T14:33:37;12.60;87.40
15815;DHT22;8008;50.024;8.172;2024-02-28T14:36:05;12.90;87.30
15815;DHT22;8008;50.024;8.172;2024-02-28T14:38:33;13.80;89.10
15815;DHT22;8008;50.024;8.172;2024-02-28T14:41:01;14.80;89.40
15815;DHT22;8008;50.024;8.172;2024-02-28T14:43:30;16.00;88.80
15815;DHT22;8008;50.024;8.172;2024-02-28T14:45:57;17.50;86.70
15815;DHT22;8008;50.024;8.172;2024-02-28T14:48:25;18.40;80.30
15815;DHT22;8008;50.024;8.172;2024-02-28T14:50:56;19.30;77.60
15815;DHT22;8008;50.024;8.172;2024-02-28T14:53:24;20.00;75.80
15815;DHT22;8008;50.024;8.172;2024-02-28T14:55:52;20.60;73.00
15815;DHT22;8008;50.024;8.172;2024-02-28T14:58:20;21.00;69.60
15815;DHT22;8008;50.024;8.172;2024-02-28T15:00:48;20.10;66.00
15815;DHT22;8008;50.024;8.172;2024-02-28T15:03:16;19.50;67.70
15815;DHT22;8008;50.024;8.172;2024-02-28T15:05:45;19.70;67.50
15815;DHT22;8008;50.024;8.172;2024-02-28T15:08:15;19.90;67.30
15815;DHT22;8008;50.024;8.172;2024-02-28T15:10:43;19.70;66.20
15815;DHT22;8008;50.024;8.172;2024-02-28T15:13:11;19.70;67.40
15815;DHT22;8008;50.024;8.172;2024-02-28T15:15:39;20.00;66.30
15815;DHT22;8008;50.024;8.172;2024-02-28T15:18:09;19.80;65.50
15815;DHT22;8008;50.024;8.172;2024-02-28T15:20:37;19.60;65.20
15815;DHT22;8008;50.024;8.172;2024-02-28T15:23:06;19.80;64.70
15815;DHT22;8008;50.024;8.172;2024-02-28T15:25:35;19.70;64.60
15815;DHT22;8008;50.024;8.172;2024-02-28T15:28:04;19.00;64.90
15815;DHT22;8008;50.024;8.172;2024-02-28T15:30:33;17.70;65.00
15815;DHT22;8008;50.024;8.172;2024-02-28T15:33:01;16.80;66.60
15815;DHT22;8008;50.024;8.172;2024-02-28T15:35:30;15.80;66.90
15815;DHT22;8008;50.024;8.172;2024-02-28T15:37:59;15.20;68.20
15815;DHT22;8008;50.024;8.172;2024-02-28T15:40:27;14.70;69.30
15815;DHT22;8008;50.024;8.172;2024-02-28T15:42:56;14.10;67.50
15815;DHT22;8008;50.024;8.172;2024-02-28T15:45:25;13.20;68.40
15815;DHT22;8008;50.024;8.172;2024-02-28T15:47:53;12.70;70.40
15815;DHT22;8008;50.024;8.172;2024-02-28T15:50:21;12.40;71.10
15815;DHT22;8008;50.024;8.172;2024-02-28T15:52:49;12.20;72.10
15815;DHT22;8008;50.024;8.172;2024-02-28T15:55:17;12.10;72.20
15815;DHT22;8008;50.024;8.172;2024-02-28T15:57:46;11.90;71.80
15815;DHT22;8008;50.024;8.172;2024-02-28T16:00:17;11.70;72.60
15815;DHT22;8008;50.024;8.172;2024-02-28T16:02:45;11.60;72.70
15815;DHT22;8008;50.024;8.172;2024-02-28T16:05:13;11.50;73.60
15815;DHT22;8008;50.024;8.172;2024-02-28T16:07:40;11.50;73.90
15815;DHT22;8008;50.024;8.172;2024-02-28T16:10:09;11.40;74.60
15815;DHT22;8008;50.024;8.172;2024-02-28T16:12:37;11.30;74.80
15815;DHT22;8008;50.024;8.172;2024-02-28T16:15:05;11.20;75.20
15815;DHT22;8008;50.024;8.172;2024-02-28T16:17:36;11.20;75.60
15815;DHT22;8008;50.024;8.172;2024-02-28T16:20:05;11.10;76.90
15815;DHT22;8008;50.024;8.172;2024-02-28T16:22:33;11.20;77.00
15815;DHT22;8008;50.024;8.172;2024-02-28T16:25:01;11.20;77.00
15815;DHT22;8008;50.024;8.172;2024-02-28T16:27:30;11.10;77.30
15815;DHT22;8008;50.024;8.172;2024-02-28T16:29:58;11.00;77.40
15815;DHT22;8008;50.024;8.172;2024-02-28T16:32:26;11.10;78.30
15815;DHT22;8008;50.024;8.172;2024-02-28T16:34:58;11.00;78.80
15815;DHT22;8008;50.024;8.172;2024-02-28T16:37:25;11.00;78.60
15815;DHT22;8008;50.024;8.172;2024-02-28T16:39:53;10.90;79.00
15815;DHT22;8008;50.024;8.172;2024-02-28T16:42:21;10.80;79.70
15815;DHT22;8008;50.024;8.172;2024-02-28T16:44:52;10.80;80.10
15815;DHT22;8008;50.024;8.172;2024-02-28T16:47:20;10.80;80.20
15815;DHT22;8008;50.024;8.172;2024-02-28T16:49:48;10.70;80.90
15815;DHT22;8008;50.024;8.172;2024-02-28T16:52:17;10.70;80.70
15815;DHT22;8008;50.024;8.172;2024-02-28T16:54:46;10.70;81.20
15815;DHT22;8008;50.024;8.172;2024-02-28T16:57:14;10.70;82.50
15815;DHT22;8008;50.024;8.172;2024-02-28T16:59:42;10.70;83.90
15815;DHT22;8008;50.024;8.172;2024-02-28T17:02:10;10.70;83.50
15815;DHT22;8008;50.024;8.172;2024-02-28T17:04:38;10.70;83.80
15815;DHT22;8008;50.024;8.172;2024-02-28T17:07:06;10.60;85.20
15815;DHT22;8008;50.024;8.172;2024-02-28T17:09:35;10.50;86.70
15815;DHT22;8008;50.024;8.172;2024-02-28T17:12:04;10.50;86.90
15815;DHT22;8008;50.024;8.172;2024-02-28T17:14:32;10.50;87.30
15815;DHT22;8008;50.024;8.172;2024-02-28T17:17:00;10.40;87.90
15815;DHT22;8008;50.024;8.172;2024-02-28T17:19:28;10.40;88.90
15815;DHT22;8008;50.024;8.172;2024-02-28T17:21:56;10.30;89.50
15815;DHT22;8008;50.024;8.172;2024-02-28T17:24:24;10.20;89.70
15815;DHT22;8008;50.024;8.172;2024-02-28T17:26:53;10.20;89.90
15815;DHT22;8008;50.024;8.172;2024-02-28T17:29:22;10.20;90.20
15815;DHT22;8008;50.024;8.172;2024-02-28T17:31:50;10.10;90.00
15815;DHT22;8008;50.024;8.172;2024-02-28T17:34:18;10.10;90.40
15815;DHT22;8008;50.024;8.172;2024-02-28T17:36:46;10.00;90.50
15815;DHT22;8008;50.024;8.172;2024-02-28T17:39:15;10.10;90.60
15815;DHT22;8008;50.024;8.172;2024-02-28T17:41:47;10.00;90.90
15815;DHT22;8008;50.024;8.172;2024-02-28T17:44:17;10.00;90.80
15815;DHT22;8008;50.024;8.172;2024-02-28T17:46:45;9.90;91.70
15815;DHT22;8008;50.024;8.172;2024-02-28T17:49:13;9.90;90.80
15815;DHT22;8008;50.024;8.172;2024-02-28T17:51:41;9.90;91.30
15815;DHT22;8008;50.024;8.172;2024-02-28T17:54:09;9.90;91.80
15815;DHT22;8008;50.024;8.172;2024-02-28T17:56:37;9.80;91.10
15815;DHT22;8008;50.024;8.172;2024-02-28T17:59:06;9.80;91.60
15815;DHT22;8008;50.024;8.172;2024-02-28T18:01:36;9.80;91.90
15815;DHT22;8008;50.024;8.172;2024-02-28T18:04:04;9.70;92.00
15815;DHT22;8008;50.024;8.172;2024-02-28T18:06:32;9.70;92.50
15815;DHT22;8008;50.024;8.172;2024-02-28T18:09:00;9.60;93.10
15815;DHT22;8008;50.024;8.172;2024-02-28T18:11:29;9.60;93.70
15815;DHT22;8008;50.024;8.172;2024-02-28T18:13:58;9.60;93.70
15815;DHT22;8008;50.024;8.172;2024-02-28T18:16:26;9.50;93.60
15815;DHT22;8008;50.024;8.172;2024-02-28T18:18:55;9.50;94.10
15815;DHT22;8008;50.024;8.172;2024-02-28T18:21:23;9.50;94.50
15815;DHT22;8008;50.024;8.172;2024-02-28T18:23:51;9.50;95.10
15815;DHT22;8008;50.024;8.172;2024-02-28T18:26:21;9.50;95.60
15815;DHT22;8008;50.024;8.172;2024-02-28T18:28:49;9.40;96.20
15815;DHT22;8008;50.024;8.172;2024-02-28T18:31:17;9.40;96.60
15815;DHT22;8008;50.024;8.172;2024-02-28T18:33:45;9.30;97.50
15815;DHT22;8008;50.024;8.172;2024-02-28T18:36:15;9.30;97.50
15815;DHT22;8008;50.024;8.172;2024-02-28T18:38:43;9.30;98.00
15815;DHT22;8008;50.024;8.172;2024-02-28T18:41:11;9.30;98.10
15815;DHT22;8008;50.024;8.172;2024-02-28T18:43:39;9.20;98.80
15815;DHT22;8008;50.024;8.172;2024-02-28T18:46:09;9.10;99.00
15815;DHT22;8008;50.024;8.172;2024-02-28T18:48:37;9.10;99.60
15815;DHT22;8008;50.024;8.172;2024-02-28T18:51:05;9.00;99.70
15815;DHT22;8008;50.024;8.172;2024-02-28T18:53:34;9.00;99.90
15815;DHT22;8008;50.024;8.172;2024-02-28T18:56:02;9.00;99.90
15815;DHT22;8008;50.024;8.172;2024-02-28T18:58:30;9.00;99.90
15815;DHT22;8008;50.024;8.172;2024-02-28T19:00:58;9.00;99.90
15815;DHT22;8008;50.024;8.172;2024-02-28T19:03:27;8.90;99.90
15815;DHT22;8008;50.024;8.172;2024-02-28T19:05:55;8.90;99.90
15815;DHT22;8008;50.024;8.172;2024-02-28T19:08:24;8.90;99.90
15815;DHT22;8008;50.024;8.172;2024-02-28T19:10:53;8.90;99.90
15815;DHT22;8008;50.024;8.172;2024-02-28T19:13:21;8.90;99.90
15815;DHT22;8008;50.024;8.172;2024-02-28T19:15:49;8.80;99.90
15815;DHT22;8008;50.024;8.172;2024-02-28T19:18:18;8.80;99.90
15815;DHT22;8008;50.024;8.172;2024-02-28T19:20:46;8.70;99.90
15815;DHT22;8008;50.024;8.172;2024-02-28T19:23:15;8.70;99.90
15815;DHT22;8008;50.024;8.172;2024-02-28T19:25:46;8.60;99.90
15815;DHT22;8008;50.024;8.172;2024-02-28T19:28:15;8.60;99.90
15815;DHT22;8008;50.024;8.172;2024-02-28T19:30:43;8.60;99.90
15815;DHT22;8008;50.024;8.172;2024-02-28T19:33:11;8.60;99.90
15815;DHT22;8008;50.024;8.172;2024-02-28T19:35:39;8.50;99.90
15815;DHT22;8008;50.024;8.172;2024-02-28T19:38:08;8.60;99.90
15815;DHT22;8008;50.024;8.172;2024-02-28T19:40:36;8.50;99.90
15815;DHT22;8008;50.024;8.172;2024-02-28T19:43:05;8.50;99.90
15815;DHT22;8008;50.024;8.172;2024-02-28T19:45:35;8.40;99.90
15815;DHT22;8008;50.024;8.172;2024-02-28T19:48:04;8.40;99.90
15815;DHT22;8008;50.024;8.172;2024-02-28T19:50:32;8.30;99.90
15815;DHT22;8008;50.024;8.172;2024-02-28T19:53:01;8.30;99.90
15815;DHT22;8008;50.024;8.172;2024-02-28T19:55:28;8.30;99.90
15815;DHT22;8008;50.024;8.172;2024-02-28T19:57:56;8.30;99.90
15815;DHT22;8008;50.024;8.172;2024-02-28T20:00:24;8.10;99.90
15815;DHT22;8008;50.024;8.172;2024-02-28T20:02:54;8.10;99.90
15815;DHT22;8008;50.024;8.172;2024-02-28T20:05:22;8.00;99.90